Accueil
METAR-TAF:

METAR-TAF

Aéroports :

Tripoli, Libye

Aéroport de Milaga

latitude: 32-54N, longitude: 13-17E, altitude: 11 m

Observation

Le bulletin a été fait il y a 50 minutes, à 17:50 UTC
Vent 10 kt de est/sud-est
Température 21°C
Humidité 69%
Pression 1018 hPa
Visibilité: 8000 m
Nuages épars à une hauteur de 14000 ft

METAR: HLLM 231750Z 11010KT 8000 SCT140 21/15 Q1018

Heure: 20:40 (18:40 UTC)

Prévision

Le bulletin a été fait il y a 13 heures et 40 minutes, à 05:00 UTC
Prévision valable du 23 à 06 UTC au 24 à 06 UTC
Vent 2 kt de direction variable
Visibilité: 8000 m
Quelques nuages à une hauteur de 2500 ft
Evoluant progressivement
du 23 à 10 UTC au 23 à 12 UTC
Vent 12 kt de est/nord-est

TAF: HLLM 230500Z 2306/2406 VRB02KT 8000 FEW025 BECMG 2310/2312 06012KT

Observations et prévisions météorologiques de plus de 4000 aéroports (messages METAR et TAF).

Les stations disponibles sont représentées par des disques jaunes et rouges sur la carte.

Passer la souris dessus pour voir le nom de la station.

Cliquer dessus pour voir les observations et prévisions météorologiques.

Pour changer de carte: cliquez sur les boutons verts avec une croix noire pour zoomer, sur le bouton vert avec un tiret pour effectuer un zoom arrière, ou sur les flèches vertes pour les cartes adjacentes.


METAR-TAF: